Landon, Ohio
Current Conditions -  °F | °C
As of 12:53 PM on Friday 21 Nov 2014 (Local Time) from KHAO Reporting Station
Clear Clear  
Wind Chill: 25°   Ceiling: Unl
Heat Index: 30°   Visibility: 10mi
Dew Point: 12°   Wind: 5mph
Humidity: 47%   Direction: 100°E
Pressure: 30.52"   Gusts: NA
Location:  39.3164°N, 84.2265°W
Report Text: KHAO 211753Z AUTO 10004KT 10SM CLR M01/M11 A3052 RMK AO2 SLP345 60000 I6000 T10111111 11011 21139 58004
Loading
Personal Weather Stations






























Interactive Weather Map New forecast layout! Learn more

10-Day Weather Forecast

Advertisements
Track Severe Weather on mobile